Time;durP1;ratioP1;P1;durP2;ratioP2;P2;SDS_P1;SDS_P2;PMS_P1;PMS_P2;Temp;Humidity;BMP_temperature;BMP_pressure;BME280_temperature;BME280_humidity;BME280_pressure;Samples;Min_cycle;Max_cycle;Signal;HPM_P1;HPM_P2
2021/08/25 00:00:04;;;;;;;3.30;3.00;;;16.30;74.10;;;;;;5053012;28;20560;-44
2021/08/25 00:02:31;;;;;;;6.50;3.20;;;16.30;74.10;;;;;;5069141;28;21233;-44
2021/08/25 00:04:58;;;;;;;3.53;2.90;;;16.30;74.10;;;;;;5071503;28;20453;-44
2021/08/25 00:07:27;;;;;;;3.90;3.30;;;16.20;74.20;;;;;;5055077;28;20454;-44
2021/08/25 00:09:54;;;;;;;3.80;3.47;;;16.20;74.20;;;;;;5051340;28;20450;-44
2021/08/25 00:12:21;;;;;;;5.90;3.50;;;16.20;74.30;;;;;;5072456;28;20952;-44
2021/08/25 00:14:48;;;;;;;4.30;3.20;;;16.30;74.30;;;;;;5071765;28;20476;-45
2021/08/25 00:17:15;;;;;;;4.00;3.10;;;16.20;74.30;;;;;;5072507;28;20462;-44
2021/08/25 00:19:42;;;;;;;4.83;3.80;;;16.20;74.40;;;;;;5069305;28;20837;-44
2021/08/25 00:22:11;;;;;;;4.37;3.60;;;16.20;74.40;;;;;;5072752;28;20990;-44
2021/08/25 00:24:38;;;;;;;3.73;3.20;;;16.20;74.50;;;;;;5069174;28;20508;-44
2021/08/25 00:27:05;;;;;;;5.17;3.63;;;16.20;74.50;;;;;;5070859;28;20458;-44
2021/08/25 00:29:33;;;;;;;4.53;3.63;;;16.20;74.60;;;;;;5071676;28;20454;-44
2021/08/25 00:32:00;;;;;;;4.13;3.60;;;16.20;74.50;;;;;;5052643;28;20464;-44
2021/08/25 00:34:27;;;;;;;6.07;3.60;;;16.10;74.60;;;;;;5049586;28;20470;-44
2021/08/25 00:36:54;;;;;;;5.17;3.80;;;16.10;74.60;;;;;;5041637;28;20461;-44
2021/08/25 00:39:20;;;;;;;6.20;4.30;;;16.10;74.70;;;;;;5082627;28;20453;-44
2021/08/25 00:41:47;;;;;;;4.23;3.20;;;16.10;74.70;;;;;;5051181;28;20481;-44
2021/08/25 00:44:17;;;;;;;4.07;2.77;;;16.00;74.70;;;;;;5050871;28;20474;-44
2021/08/25 00:46:45;;;;;;;3.30;3.00;;;16.00;74.60;;;;;;5083432;28;20460;-44
2021/08/25 00:49:17;;;;;;;3.63;3.13;;;16.00;74.50;;;;;;5069860;28;20461;-44
2021/08/25 00:51:45;;;;;;;3.57;3.23;;;16.00;74.60;;;;;;5070728;28;20456;-44
2021/08/25 00:54:17;;;;;;;4.10;3.10;;;15.90;74.60;;;;;;5068231;28;20477;-44
2021/08/25 00:56:46;;;;;;;4.37;3.30;;;15.90;74.60;;;;;;5073154;28;20472;-44
2021/08/25 00:59:13;;;;;;;3.80;3.40;;;15.90;74.70;;;;;;5073446;28;20458;-44
2021/08/25 01:02:03;;;;;;;5.20;3.30;;;15.80;74.90;;;;;;5048664;28;20486;-44
2021/08/25 01:04:36;;;;;;;3.70;3.40;;;15.80;75.10;;;;;;5066616;28;20530;-44
2021/08/25 01:07:03;;;;;;;4.50;3.90;;;15.80;75.10;;;;;;5068423;28;20475;-44
2021/08/25 01:09:30;;;;;;;4.07;3.50;;;15.80;75.20;;;;;;5081872;28;20454;-44
2021/08/25 01:12:00;;;;;;;3.33;3.03;;;15.80;75.20;;;;;;5075345;28;20479;-44
2021/08/25 01:14:28;;;;;;;3.97;3.20;;;15.80;75.10;;;;;;5055245;28;20639;-44
2021/08/25 01:16:56;;;;;;;3.57;2.80;;;15.80;75.10;;;;;;5065352;28;20472;-44
2021/08/25 01:19:26;;;;;;;3.53;3.20;;;15.80;75.20;;;;;;5082458;28;20453;-44
2021/08/25 01:21:56;;;;;;;4.30;3.87;;;15.90;75.30;;;;;;5056929;28;20574;-44
2021/08/25 01:24:24;;;;;;;5.30;3.37;;;15.90;75.50;;;;;;5059941;28;20464;-44
2021/08/25 01:26:53;;;;;;;4.67;3.27;;;15.90;75.30;;;;;;5073483;28;20437;-44
2021/08/25 01:29:26;;;;;;;3.40;2.73;;;15.90;75.40;;;;;;5066635;28;21277;-44
2021/08/25 01:31:54;;;;;;;7.00;3.40;;;15.90;75.60;;;;;;5068348;28;20456;-44
2021/08/25 01:34:21;;;;;;;7.30;3.53;;;15.90;75.60;;;;;;5079685;28;20824;-44
2021/08/25 01:36:52;;;;;;;5.40;3.70;;;15.90;75.50;;;;;;5086221;28;20464;-44
2021/08/25 01:39:19;;;;;;;5.00;3.70;;;15.90;75.50;;;;;;5068466;28;20462;-44
2021/08/25 01:41:47;;;;;;;4.80;3.77;;;15.90;75.40;;;;;;5053648;28;20481;-44
2021/08/25 01:44:15;;;;;;;3.20;2.90;;;16.00;75.30;;;;;;5047622;28;20952;-44
2021/08/25 01:46:43;;;;;;;4.57;3.40;;;16.00;75.50;;;;;;5069785;28;20463;-44
2021/08/25 01:49:12;;;;;;;6.00;4.60;;;15.90;75.60;;;;;;5067142;28;20464;-44
2021/08/25 01:51:40;;;;;;;4.87;3.70;;;16.00;75.70;;;;;;5068744;28;21075;-44
2021/08/25 01:54:08;;;;;;;4.27;3.50;;;15.90;75.90;;;;;;5074121;28;20469;-44
2021/08/25 01:56:39;;;;;;;3.97;3.50;;;15.90;75.80;;;;;;5042387;28;20526;-44
2021/08/25 01:59:06;;;;;;;3.47;3.17;;;15.90;75.90;;;;;;5067125;28;20493;-44
2021/08/25 02:01:33;;;;;;;4.10;3.13;;;15.90;75.70;;;;;;5052014;28;20463;-44
2021/08/25 02:04:02;;;;;;;3.97;3.10;;;15.90;75.80;;;;;;5040146;28;20450;-44
2021/08/25 02:06:29;;;;;;;4.03;3.20;;;15.90;75.80;;;;;;5063951;28;20462;-44
2021/08/25 02:08:56;;;;;;;4.20;3.47;;;15.90;75.80;;;;;;5067958;28;20809;-44
2021/08/25 02:11:23;;;;;;;7.90;3.93;;;15.90;75.80;;;;;;5064500;28;20453;-44
2021/08/25 02:13:49;;;;;;;3.47;3.13;;;15.80;75.80;;;;;;5082272;28;20953;-44
2021/08/25 02:16:16;;;;;;;4.70;3.60;;;15.80;75.90;;;;;;5079695;28;20464;-44
2021/08/25 02:18:43;;;;;;;5.10;3.37;;;15.80;75.90;;;;;;5066226;28;20457;-44
2021/08/25 02:21:10;;;;;;;8.33;4.20;;;15.80;75.90;;;;;;5066902;28;20481;-44
2021/08/25 02:23:38;;;;;;;3.97;3.43;;;15.80;76.00;;;;;;5068005;28;20489;-44
2021/08/25 02:26:04;;;;;;;4.27;3.70;;;15.80;76.10;;;;;;5060737;28;20449;-44
2021/08/25 02:28:33;;;;;;;5.60;3.90;;;15.70;76.10;;;;;;5051017;28;20454;-44
2021/08/25 02:31:00;;;;;;;5.70;3.83;;;15.70;76.20;;;;;;5068160;28;21106;-44
2021/08/25 02:33:27;;;;;;;4.37;3.60;;;15.70;76.10;;;;;;5055298;28;20475;-44
2021/08/25 02:35:56;;;;;;;4.20;3.57;;;15.70;76.20;;;;;;5068820;28;20462;-44
2021/08/25 02:38:23;;;;;;;6.10;3.40;;;15.70;76.20;;;;;;5062271;28;20999;-44
2021/08/25 02:40:49;;;;;;;3.13;2.93;;;15.70;76.20;;;;;;5053726;28;20466;-44
2021/08/25 02:43:19;;;;;;;5.00;4.20;;;15.60;76.30;;;;;;5068442;28;20484;-44
2021/08/25 02:45:46;;;;;;;5.80;4.03;;;15.60;76.40;;;;;;5070874;28;20500;-44
2021/08/25 02:48:12;;;;;;;4.20;3.80;;;15.60;76.50;;;;;;5050208;28;20546;-44
2021/08/25 02:50:39;;;;;;;3.90;3.50;;;15.50;76.60;;;;;;5068858;28;20455;-44
2021/08/25 02:53:06;;;;;;;5.23;3.47;;;15.60;76.70;;;;;;5065478;28;20452;-44
2021/08/25 02:55:32;;;;;;;4.10;3.57;;;15.50;76.70;;;;;;5065511;28;20457;-44
2021/08/25 02:58:01;;;;;;;7.27;4.20;;;15.50;76.70;;;;;;5069780;28;20493;-44
2021/08/25 03:00:28;;;;;;;3.63;3.33;;;15.50;76.60;;;;;;5070662;28;20556;-44
2021/08/25 03:02:55;;;;;;;4.60;3.73;;;15.60;76.50;;;;;;5077566;28;20996;-44
2021/08/25 03:05:22;;;;;;;3.87;3.47;;;15.60;76.60;;;;;;5071014;28;20472;-44
2021/08/25 03:07:49;;;;;;;4.27;3.10;;;15.50;76.60;;;;;;5069837;28;20458;-44
2021/08/25 03:10:16;;;;;;;4.27;3.43;;;15.50;76.60;;;;;;5074544;28;20456;-44
2021/08/25 03:12:43;;;;;;;4.87;3.30;;;15.50;76.70;;;;;;5076053;28;20454;-44
2021/08/25 03:15:10;;;;;;;8.13;4.33;;;15.50;76.60;;;;;;5072610;28;20464;-44
2021/08/25 03:17:37;;;;;;;9.80;5.07;;;15.40;76.70;;;;;;5071657;28;20549;-44
2021/08/25 03:20:06;;;;;;;6.53;4.57;;;15.40;76.90;;;;;;5070654;28;20457;-45
2021/08/25 03:22:33;;;;;;;5.73;4.07;;;15.40;76.90;;;;;;5060877;28;20503;-44
2021/08/25 03:25:01;;;;;;;10.63;4.03;;;15.40;76.90;;;;;;5084581;28;20471;-44
2021/08/25 03:27:27;;;;;;;5.63;3.90;;;15.40;76.90;;;;;;5071433;28;20465;-44
2021/08/25 03:29:54;;;;;;;4.60;3.50;;;15.40;76.90;;;;;;5072086;28;20962;-44
2021/08/25 03:32:21;;;;;;;4.63;3.00;;;15.30;77.10;;;;;;5072659;28;20461;-44
2021/08/25 03:34:48;;;;;;;5.83;3.70;;;15.30;77.10;;;;;;5075796;28;20830;-44
2021/08/25 03:37:15;;;;;;;3.90;3.50;;;15.30;76.80;;;;;;5056587;28;20456;-44
2021/08/25 03:39:42;;;;;;;4.80;3.57;;;15.30;76.80;;;;;;5073744;28;20460;-44
2021/08/25 03:42:09;;;;;;;4.30;3.53;;;15.20;76.80;;;;;;5068366;28;20457;-44
2021/08/25 03:44:36;;;;;;;4.60;3.57;;;15.20;76.90;;;;;;5054533;28;20450;-44
2021/08/25 03:47:04;;;;;;;4.63;3.53;;;15.10;77.00;;;;;;5071167;28;20458;-44
2021/08/25 03:49:32;;;;;;;4.30;3.57;;;15.10;77.00;;;;;;5083017;28;20803;-44
2021/08/25 03:51:59;;;;;;;5.17;3.90;;;15.10;77.10;;;;;;5071746;28;20950;-44
2021/08/25 03:54:27;;;;;;;5.07;3.90;;;15.10;77.00;;;;;;5066337;28;20474;-44
2021/08/25 03:56:56;;;;;;;3.60;3.30;;;15.10;77.10;;;;;;5071071;28;20511;-44
2021/08/25 03:59:23;;;;;;;4.40;4.00;;;15.10;77.00;;;;;;5069773;28;20515;-44
2021/08/25 04:01:50;;;;;;;4.80;3.83;;;15.00;77.10;;;;;;5071190;28;20449;-44
2021/08/25 04:04:18;;;;;;;3.50;3.00;;;15.00;77.30;;;;;;5073476;28;21086;-44
2021/08/25 04:06:45;;;;;;;4.03;3.33;;;15.00;77.20;;;;;;5052232;28;20462;-44
2021/08/25 04:09:11;;;;;;;4.07;3.40;;;14.90;77.20;;;;;;5069147;28;20457;-44
2021/08/25 04:11:38;;;;;;;3.90;3.43;;;14.90;77.20;;;;;;5071040;28;21081;-44
2021/08/25 04:14:05;;;;;;;5.60;4.13;;;14.90;77.20;;;;;;5069332;28;20462;-44
2021/08/25 04:16:32;;;;;;;5.37;4.43;;;14.80;77.10;;;;;;5072449;28;20465;-44
2021/08/25 04:18:59;;;;;;;6.17;4.20;;;14.80;76.90;;;;;;5065646;28;21000;-44
2021/08/25 04:21:26;;;;;;;4.43;4.03;;;14.70;76.90;;;;;;5072448;28;20503;-44
2021/08/25 04:23:53;;;;;;;6.53;4.30;;;14.70;76.80;;;;;;5070488;28;20490;-44
2021/08/25 04:26:20;;;;;;;5.40;4.57;;;14.70;76.70;;;;;;5068276;28;20469;-44
2021/08/25 04:28:47;;;;;;;5.40;4.20;;;14.80;76.40;;;;;;5066472;28;20468;-44
2021/08/25 04:31:13;;;;;;;4.17;3.73;;;14.70;76.60;;;;;;5053337;28;20462;-44
2021/08/25 04:33:40;;;;;;;6.53;4.33;;;14.70;76.80;;;;;;5068028;28;20454;-44
2021/08/25 04:36:07;;;;;;;4.20;3.80;;;14.60;76.90;;;;;;5067285;28;20831;-44
2021/08/25 04:38:34;;;;;;;4.93;3.97;;;14.60;77.10;;;;;;5068961;28;20975;-44
2021/08/25 04:41:01;;;;;;;5.00;4.13;;;14.50;77.10;;;;;;5068999;28;20870;-44
2021/08/25 04:43:27;;;;;;;5.40;4.40;;;14.50;77.20;;;;;;5068733;28;20573;-44
2021/08/25 04:45:55;;;;;;;5.30;4.23;;;14.50;77.20;;;;;;5074434;28;20461;-44
2021/08/25 04:48:22;;;;;;;5.23;3.90;;;14.50;77.10;;;;;;5069829;28;20502;-44
2021/08/25 04:50:49;;;;;;;4.10;3.60;;;14.40;77.20;;;;;;5072217;28;20460;-44
2021/08/25 04:53:17;;;;;;;6.80;4.43;;;14.40;77.10;;;;;;5071544;28;20918;-44
2021/08/25 04:55:44;;;;;;;5.47;4.20;;;14.40;77.20;;;;;;5068049;28;20454;-44
2021/08/25 04:58:11;;;;;;;5.90;4.20;;;14.40;77.10;;;;;;5058337;28;20760;-44
2021/08/25 05:00:38;;;;;;;4.97;4.30;;;14.40;77.20;;;;;;5073395;28;21209;-44
2021/08/25 05:03:05;;;;;;;7.43;4.57;;;14.30;77.30;;;;;;5051231;28;20481;-44
2021/08/25 05:05:32;;;;;;;4.40;3.90;;;14.40;77.10;;;;;;5067332;28;20491;-44
2021/08/25 05:07:59;;;;;;;5.83;4.47;;;14.40;77.20;;;;;;5071080;28;20496;-44
2021/08/25 05:10:26;;;;;;;5.40;3.90;;;14.30;77.30;;;;;;5068001;28;20811;-44
2021/08/25 05:12:52;;;;;;;6.17;4.30;;;14.30;77.40;;;;;;5070609;28;20953;-44
2021/08/25 05:15:19;;;;;;;4.77;4.33;;;14.30;77.50;;;;;;5068651;28;21021;-44
2021/08/25 05:17:46;;;;;;;6.73;4.70;;;14.40;77.80;;;;;;5068014;28;20456;-44
2021/08/25 05:20:13;;;;;;;5.40;4.50;;;14.40;77.80;;;;;;5069890;28;20466;-44
2021/08/25 05:22:40;;;;;;;5.73;4.50;;;14.40;78.00;;;;;;5078414;28;21731;-44
2021/08/25 05:25:07;;;;;;;5.43;4.10;;;14.40;78.20;;;;;;5066542;28;20489;-44
2021/08/25 05:27:34;;;;;;;7.13;4.03;;;14.40;78.30;;;;;;5063771;28;20611;-44
2021/08/25 05:30:01;;;;;;;4.33;3.80;;;14.40;78.40;;;;;;5068470;28;20466;-44
2021/08/25 05:32:28;;;;;;;5.70;4.53;;;14.40;78.50;;;;;;5079506;28;20460;-44
2021/08/25 05:34:54;;;;;;;5.80;4.37;;;14.40;78.70;;;;;;5069073;28;20453;-44
2021/08/25 05:37:21;;;;;;;6.90;4.67;;;14.50;78.70;;;;;;5070532;28;20448;-44
2021/08/25 05:39:48;;;;;;;5.53;3.90;;;14.50;78.80;;;;;;5065744;28;20829;-44
2021/08/25 05:42:14;;;;;;;8.17;4.63;;;14.50;78.90;;;;;;5069837;28;20956;-44
2021/08/25 05:44:41;;;;;;;5.33;4.17;;;14.60;78.90;;;;;;5070759;28;20752;-44
2021/08/25 05:47:08;;;;;;;4.50;3.90;;;14.60;78.90;;;;;;5068035;28;20448;-44
2021/08/25 05:49:35;;;;;;;5.23;4.70;;;14.70;78.90;;;;;;5051637;28;20470;-44
2021/08/25 05:52:02;;;;;;;5.23;4.73;;;14.70;79.00;;;;;;5053249;28;20455;-44
2021/08/25 05:54:28;;;;;;;7.30;4.40;;;14.70;79.10;;;;;;5066638;28;21604;-44
2021/08/25 05:56:55;;;;;;;5.23;4.13;;;14.80;79.10;;;;;;5067562;28;20472;-44
2021/08/25 05:59:22;;;;;;;4.77;4.30;;;14.80;79.20;;;;;;5054283;28;20945;-44
2021/08/25 06:01:49;;;;;;;5.07;4.43;;;14.90;79.20;;;;;;5069962;28;20827;-44
2021/08/25 06:04:16;;;;;;;5.93;4.43;;;14.90;79.30;;;;;;5056341;28;20855;-44
2021/08/25 06:06:43;;;;;;;6.23;4.57;;;15.00;79.30;;;;;;5072506;28;20446;-44
2021/08/25 06:09:09;;;;;;;5.40;4.60;;;15.00;79.20;;;;;;5080778;28;20579;-44
2021/08/25 06:11:38;;;;;;;4.73;4.33;;;15.10;79.40;;;;;;5055003;28;20958;-44
2021/08/25 06:14:07;;;;;;;5.77;5.13;;;15.20;79.40;;;;;;5064933;28;22176;-44
2021/08/25 06:16:34;;;;;;;5.50;4.07;;;15.30;79.30;;;;;;5074108;28;20500;-44
2021/08/25 06:19:05;;;;;;;8.63;5.43;;;15.30;79.40;;;;;;5071861;28;20977;-44
2021/08/25 06:21:32;;;;;;;7.43;4.93;;;15.40;79.50;;;;;;5047681;28;20469;-44
2021/08/25 06:23:58;;;;;;;5.70;5.10;;;15.50;79.40;;;;;;5067579;28;20488;-44
2021/08/25 06:26:25;;;;;;;7.03;5.60;;;15.60;79.10;;;;;;5068807;28;20449;-44
2021/08/25 06:28:54;;;;;;;6.47;4.37;;;15.70;78.90;;;;;;5053162;28;20467;-44
2021/08/25 06:31:21;;;;;;;6.80;5.37;;;15.80;78.90;;;;;;5035179;28;20469;-44
2021/08/25 06:33:48;;;;;;;6.33;4.40;;;15.80;78.90;;;;;;5063602;28;20443;-44
2021/08/25 06:36:15;;;;;;;5.83;5.10;;;15.90;78.90;;;;;;5067195;28;20450;-44
2021/08/25 06:38:42;;;;;;;7.10;5.80;;;16.00;78.70;;;;;;5068796;28;21048;-44
2021/08/25 06:41:08;;;;;;;6.37;4.80;;;16.10;78.40;;;;;;5069903;28;20843;-44
2021/08/25 06:43:35;;;;;;;5.80;5.20;;;16.20;78.20;;;;;;5067721;28;20478;-44
2021/08/25 06:46:02;;;;;;;5.97;4.83;;;16.20;78.10;;;;;;5062326;28;20459;-44
2021/08/25 06:48:29;;;;;;;5.90;4.20;;;16.30;77.90;;;;;;5055610;28;20891;-44
2021/08/25 06:50:56;;;;;;;5.17;4.10;;;16.40;77.40;;;;;;5064168;28;20539;-44
2021/08/25 06:53:23;;;;;;;6.80;4.00;;;16.50;76.40;;;;;;5041318;28;20456;-44
2021/08/25 06:55:49;;;;;;;5.30;3.77;;;16.60;75.50;;;;;;5054932;28;20554;-44
2021/08/25 06:58:16;;;;;;;6.37;3.97;;;16.80;74.80;;;;;;5066138;28;20441;-44
2021/08/25 07:00:43;;;;;;;5.90;3.60;;;16.80;74.70;;;;;;5069739;28;20450;-44
2021/08/25 07:03:10;;;;;;;6.33;3.80;;;17.00;74.40;;;;;;5062798;28;20508;-44
2021/08/25 07:05:37;;;;;;;5.53;3.77;;;17.10;74.10;;;;;;5070967;28;20445;-44
2021/08/25 07:08:04;;;;;;;6.03;4.00;;;17.20;73.50;;;;;;5061484;28;20453;-44
2021/08/25 07:10:31;;;;;;;7.70;4.37;;;17.30;72.90;;;;;;5068649;28;20969;-44
2021/08/25 07:12:57;;;;;;;4.00;3.37;;;17.50;73.10;;;;;;5059315;28;20442;-44
2021/08/25 07:15:24;;;;;;;5.60;3.90;;;17.70;72.40;;;;;;5040835;28;21020;-44
2021/08/25 07:17:51;;;;;;;6.27;4.30;;;17.80;71.00;;;;;;5073673;28;20449;-44
2021/08/25 07:20:34;;;;;;;4.40;4.00;;;17.90;70.60;;;;;;5053068;28;20485;-44
2021/08/25 07:23:01;;;;;;;6.00;3.87;;;18.10;70.20;;;;;;5066608;28;20461;-44
2021/08/25 07:25:28;;;;;;;7.90;3.57;;;18.20;69.40;;;;;;5058313;28;20970;-44
2021/08/25 07:27:54;;;;;;;4.80;3.80;;;18.40;68.70;;;;;;5057942;28;21059;-44
2021/08/25 07:30:23;;;;;;;5.13;4.13;;;18.50;68.80;;;;;;5046039;28;20681;-44
2021/08/25 07:32:50;;;;;;;4.80;3.73;;;18.70;68.80;;;;;;5081583;28;20951;-44
2021/08/25 07:35:17;;;;;;;11.73;3.70;;;18.90;68.90;;;;;;5061267;28;20454;-44
2021/08/25 07:37:44;;;;;;;4.87;3.53;;;19.00;67.80;;;;;;5063371;28;20465;-43
2021/08/25 07:40:11;;;;;;;5.47;4.13;;;19.10;66.40;;;;;;5067941;28;20458;-44
2021/08/25 07:42:38;;;;;;;7.00;3.70;;;19.30;66.10;;;;;;5078753;28;20461;-43
2021/08/25 07:45:05;;;;;;;4.40;2.73;;;19.40;65.70;;;;;;5049236;28;20539;-44
2021/08/25 07:47:32;;;;;;;5.17;3.30;;;19.50;65.20;;;;;;5062361;28;20455;-44
2021/08/25 07:50:00;;;;;;;5.37;3.33;;;19.70;65.20;;;;;;5066842;28;20840;-44
2021/08/25 07:52:27;;;;;;;6.10;3.03;;;19.90;63.30;;;;;;5071216;28;20469;-43
2021/08/25 07:54:53;;;;;;;4.30;3.07;;;20.00;63.10;;;;;;5069230;28;20467;-44
2021/08/25 07:57:20;;;;;;;5.53;4.07;;;20.20;62.50;;;;;;5067120;28;20438;-44
2021/08/25 07:59:47;;;;;;;6.30;3.43;;;20.30;61.80;;;;;;5070510;28;20783;-44
2021/08/25 08:02:13;;;;;;;4.43;3.10;;;20.40;61.20;;;;;;5057525;28;20464;-44
2021/08/25 08:04:40;;;;;;;5.30;3.57;;;20.60;61.10;;;;;;5054251;28;20494;-44
2021/08/25 08:07:07;;;;;;;3.43;3.10;;;20.70;60.90;;;;;;5073576;28;20473;-44
2021/08/25 08:09:34;;;;;;;5.90;3.63;;;20.80;60.40;;;;;;5072069;28;20820;-44
2021/08/25 08:12:01;;;;;;;3.13;2.53;;;21.00;61.00;;;;;;5070089;28;20441;-44
2021/08/25 08:14:28;;;;;;;3.50;2.83;;;21.30;59.80;;;;;;5063926;28;20457;-44
2021/08/25 08:16:59;;;;;;;5.13;2.73;;;21.50;59.40;;;;;;5071109;28;20461;-44
2021/08/25 08:19:30;;;;;;;3.30;2.80;;;21.70;59.40;;;;;;5072623;28;20449;-44
2021/08/25 08:22:00;;;;;;;5.97;3.40;;;21.90;58.80;;;;;;5054068;28;20468;-44
2021/08/25 08:24:29;;;;;;;5.50;3.10;;;22.00;57.10;;;;;;5073061;28;20473;-44
2021/08/25 08:26:58;;;;;;;3.47;3.17;;;22.10;56.90;;;;;;5067060;28;20514;-44
2021/08/25 08:29:26;;;;;;;3.77;2.83;;;22.30;56.40;;;;;;5069280;28;20453;-44
2021/08/25 08:31:53;;;;;;;5.20;3.70;;;22.40;56.10;;;;;;5058133;28;20966;-44
2021/08/25 08:34:20;;;;;;;5.20;3.87;;;22.60;55.00;;;;;;5068209;28;20491;-44
2021/08/25 08:36:47;;;;;;;4.67;4.17;;;22.60;54.30;;;;;;5053167;28;20456;-44
2021/08/25 08:39:14;;;;;;;4.60;3.90;;;22.70;53.80;;;;;;5073793;28;20466;-44
2021/08/25 08:41:41;;;;;;;5.73;3.40;;;22.80;54.30;;;;;;5070834;28;20445;-44
2021/08/25 08:44:17;;;;;;;4.10;2.80;;;22.90;53.90;;;;;;5066379;28;20469;-44
2021/08/25 08:46:48;;;;;;;5.20;3.33;;;23.20;53.70;;;;;;5073913;28;20444;-44
2021/08/25 08:49:18;;;;;;;4.70;3.00;;;23.50;52.50;;;;;;5068141;28;20478;-44
2021/08/25 08:51:45;;;;;;;4.87;3.83;;;23.70;51.90;;;;;;5048024;28;20814;-44
2021/08/25 08:54:12;;;;;;;4.80;3.30;;;23.80;50.90;;;;;;5081086;28;20499;-44
2021/08/25 08:56:38;;;;;;;6.20;3.67;;;24.10;51.90;;;;;;5071255;28;21310;-44
2021/08/25 08:59:05;;;;;;;5.90;4.13;;;24.30;51.10;;;;;;5053017;28;21131;-44
2021/08/25 09:01:34;;;;;;;4.50;3.23;;;24.70;50.80;;;;;;5070015;28;20445;-45
2021/08/25 09:04:01;;;;;;;5.73;3.33;;;25.00;49.10;;;;;;5071260;28;20477;-44
2021/08/25 09:06:45;;;;;;;5.77;3.57;;;25.20;49.10;;;;;;5069327;28;20445;-44
2021/08/25 09:09:12;;;;;;;5.03;4.10;;;25.50;49.50;;;;;;5067832;28;20442;-44
2021/08/25 09:11:54;;;;;;;3.40;3.07;;;25.70;47.50;;;;;;5061806;28;20847;-44
2021/08/25 09:14:29;;;;;;;4.60;3.33;;;26.00;47.50;;;;;;5055662;28;20481;-44
2021/08/25 09:17:02;;;;;;;5.67;3.57;;;26.30;47.40;;;;;;5067504;28;20964;-44
2021/08/25 09:19:35;;;;;;;5.83;3.47;;;26.50;45.90;;;;;;5055717;28;20453;-45
2021/08/25 09:22:16;;;;;;;5.63;3.77;;;26.80;45.80;;;;;;5059280;28;20467;-45
2021/08/25 09:24:44;;;;;;;4.30;3.13;;;27.00;45.20;;;;;;5052618;28;20481;-44
2021/08/25 09:27:14;;;;;;;5.60;3.00;;;27.30;45.00;;;;;;5053545;28;20544;-45
2021/08/25 09:29:42;;;;;;;4.30;3.57;;;27.60;45.10;;;;;;5057600;28;20444;-46
2021/08/25 09:32:20;;;;;;;4.20;2.87;;;27.90;44.50;;;;;;5071128;28;20453;-46
2021/08/25 09:34:57;;;;;;;5.00;3.47;;;28.20;43.80;;;;;;5062143;28;20453;-46
2021/08/25 09:37:29;;;;;;;3.60;3.10;;;28.30;43.20;;;;;;5044664;28;20290;-44
2021/08/25 09:39:58;;;;;;;4.50;3.10;;;28.50;42.80;;;;;;5060091;28;20440;-44
2021/08/25 09:42:43;;;;;;;5.40;3.20;;;28.60;43.00;;;;;;5067465;28;20502;-44
2021/08/25 09:45:14;;;;;;;4.37;3.43;;;28.60;42.10;;;;;;5062954;28;20322;-45
2021/08/25 09:47:54;;;;;;;4.13;3.60;;;28.60;41.90;;;;;;5061585;28;20205;-45
2021/08/25 09:50:23;;;;;;;5.00;3.30;;;28.70;42.10;;;;;;5065296;28;20205;-45
2021/08/25 09:52:50;;;;;;;4.37;3.37;;;28.70;42.10;;;;;;5066719;28;20437;-45
2021/08/25 09:55:34;;;;;;;3.50;2.80;;;28.90;42.10;;;;;;5068550;28;20293;-44
2021/08/25 09:58:02;;;;;;;5.18;3.92;;;29.10;42.20;;;;;;5071780;28;20203;-44
2021/08/25 10:00:29;;;;;;;3.77;3.33;;;29.30;40.90;;;;;;5054054;28;20584;-44
2021/08/25 10:02:56;;;;;;;4.13;2.97;;;29.30;40.60;;;;;;5065776;28;20206;-44
2021/08/25 10:05:26;;;;;;;4.40;3.20;;;29.50;40.60;;;;;;5066498;28;20222;-44
2021/08/25 10:07:52;;;;;;;5.40;3.33;;;29.50;39.80;;;;;;5061625;28;20590;-44
2021/08/25 10:10:20;;;;;;;4.22;3.75;;;29.60;40.20;;;;;;5063681;28;20206;-44
2021/08/25 10:12:51;;;;;;;4.85;3.25;;;29.80;40.00;;;;;;5040444;28;20738;-44
2021/08/25 10:15:31;;;;;;;3.67;2.90;;;30.00;39.60;;;;;;5048705;28;20241;-44
2021/08/25 10:17:59;;;;;;;3.50;2.85;;;30.20;39.90;;;;;;5065668;28;20672;-44
2021/08/25 10:20:27;;;;;;;5.65;3.00;;;30.40;39.90;;;;;;5056615;28;20224;-44
2021/08/25 10:22:54;;;;;;;5.20;3.28;;;30.60;39.60;;;;;;5067460;28;20211;-43
2021/08/25 10:25:26;;;;;;;4.45;3.00;;;30.70;39.60;;;;;;5048802;28;20222;-44
2021/08/25 10:28:07;;;;;;;3.55;3.20;;;30.80;38.60;;;;;;5047363;28;20199;-44
2021/08/25 10:30:46;;;;;;;5.18;3.03;;;30.60;38.00;;;;;;5065770;28;20214;-44
2021/08/25 10:33:14;;;;;;;5.47;3.42;;;30.30;37.10;;;;;;5065381;28;20195;-44
2021/08/25 10:35:43;;;;;;;3.92;3.08;;;29.80;37.00;;;;;;5066072;28;20301;-44
2021/08/25 10:38:20;;;;;;;4.05;2.85;;;29.60;37.20;;;;;;5068566;28;20218;-44
2021/08/25 10:40:48;;;;;;;4.90;3.17;;;29.40;35.40;;;;;;5065325;28;20214;-44
2021/08/25 10:43:38;;;;;;;3.70;2.97;;;29.20;37.20;;;;;;5057572;28;20199;-44
2021/08/25 10:46:07;;;;;;;6.00;4.03;;;29.10;35.90;;;;;;5065249;28;20561;-44
2021/08/25 10:48:42;;;;;;;3.70;2.57;;;29.10;36.20;;;;;;5064085;28;20207;-43
2021/08/25 10:51:33;;;;;;;2.90;2.50;;;29.20;36.70;;;;;;5064315;28;20588;-44
2021/08/25 10:54:03;;;;;;;5.30;3.83;;;29.10;36.50;;;;;;5063585;28;20290;-44
2021/08/25 10:56:38;;;;;;;5.70;3.77;;;29.00;36.60;;;;;;5065860;28;20213;-44
2021/08/25 10:59:10;;;;;;;4.83;3.27;;;28.70;37.30;;;;;;5057081;28;20198;-44
2021/08/25 11:01:47;;;;;;;9.00;3.83;;;28.60;38.10;;;;;;5056956;28;20564;-44
2021/08/25 11:04:19;;;;;;;3.70;3.03;;;28.50;37.70;;;;;;5063484;28;20231;-44
2021/08/25 11:06:51;;;;;;;5.43;4.00;;;28.30;38.80;;;;;;5068310;28;20649;-44
2021/08/25 11:09:17;;;;;;;3.73;3.13;;;27.90;38.70;;;;;;5055572;28;20231;-45
2021/08/25 11:11:59;;;;;;;6.97;3.50;;;27.40;39.80;;;;;;5066609;28;20530;-45
2021/08/25 11:14:35;;;;;;;4.20;3.80;;;27.00;41.20;;;;;;5064842;28;20206;-46
2021/08/25 11:17:17;;;;;;;4.53;3.33;;;26.60;41.40;;;;;;5063904;28;20920;-45
2021/08/25 11:20:05;;;;;;;5.47;3.70;;;26.40;41.80;;;;;;5065235;28;20464;-44
2021/08/25 11:22:40;;;;;;;4.30;3.53;;;26.20;42.70;;;;;;5052718;28;20773;-44
2021/08/25 11:25:10;;;;;;;4.20;3.80;;;26.10;43.40;;;;;;5052772;28;20480;-44
2021/08/25 11:27:38;;;;;;;9.90;4.47;;;25.90;43.30;;;;;;5065031;28;20491;-44
2021/08/25 11:30:12;;;;;;;6.83;3.73;;;25.60;43.40;;;;;;5067739;28;20459;-44
2021/08/25 11:33:10;;;;;;;4.10;3.30;;;25.40;43.80;;;;;;5064366;28;20465;-44
2021/08/25 11:35:43;;;;;;;5.20;3.67;;;25.20;44.00;;;;;;5039560;28;20458;-44
2021/08/25 11:38:18;;;;;;;5.07;3.90;;;25.00;44.10;;;;;;5065183;28;20453;-44
2021/08/25 11:40:47;;;;;;;5.50;3.90;;;24.80;44.50;;;;;;5057993;28;20821;-44
2021/08/25 11:43:21;;;;;;;5.90;3.90;;;24.60;44.10;;;;;;5068561;28;20467;-44
2021/08/25 11:45:53;;;;;;;5.37;4.00;;;24.60;45.50;;;;;;5068083;28;20559;-44
2021/08/25 11:48:27;;;;;;;4.30;3.80;;;24.50;45.50;;;;;;5059846;28;20439;-43
2021/08/25 11:50:55;;;;;;;5.27;3.67;;;24.40;45.60;;;;;;5069089;28;20535;-44
2021/08/25 11:53:25;;;;;;;5.67;2.93;;;24.30;46.30;;;;;;5083675;28;20456;-44
2021/08/25 11:55:55;;;;;;;5.27;3.47;;;24.10;46.60;;;;;;5067837;28;20849;-44
2021/08/25 11:58:27;;;;;;;7.80;3.47;;;24.10;46.90;;;;;;5068579;28;20539;-45
2021/08/25 12:00:56;;;;;;;4.17;3.30;;;24.00;46.80;;;;;;5062966;28;20452;-44
2021/08/25 12:03:40;;;;;;;6.83;4.20;;;24.00;47.00;;;;;;5070437;28;20938;-44
2021/08/25 12:06:08;;;;;;;5.10;3.90;;;24.00;46.70;;;;;;5060580;28;20553;-44
2021/08/25 12:08:46;;;;;;;4.70;3.63;;;23.90;46.30;;;;;;5059944;28;20451;-44
2021/08/25 12:11:17;;;;;;;5.87;3.40;;;23.90;46.60;;;;;;5071420;28;20437;-44
2021/08/25 12:13:46;;;;;;;5.83;3.73;;;23.90;46.70;;;;;;5059571;28;20980;-44
2021/08/25 12:16:24;;;;;;;7.97;4.03;;;23.90;47.00;;;;;;5069003;28;20807;-44
2021/08/25 12:18:52;;;;;;;5.90;4.10;;;23.80;46.20;;;;;;5068172;28;20456;-44
2021/08/25 12:21:20;;;;;;;7.47;3.53;;;23.80;46.70;;;;;;5066414;28;20483;-44
2021/08/25 12:24:01;;;;;;;7.77;4.00;;;23.80;46.70;;;;;;5070373;28;20465;-44
2021/08/25 12:26:29;;;;;;;7.90;3.80;;;23.80;46.90;;;;;;5069957;28;20511;-44
2021/08/25 12:28:58;;;;;;;4.50;3.63;;;23.70;46.90;;;;;;5049661;28;20957;-44
2021/08/25 12:31:25;;;;;;;6.80;4.43;;;23.70;46.70;;;;;;5058378;28;20462;-44
2021/08/25 12:34:07;;;;;;;4.83;3.50;;;23.80;47.20;;;;;;5063651;28;20446;-43
2021/08/25 12:36:38;;;;;;;5.90;4.60;;;23.70;47.30;;;;;;5065468;28;20495;-44
2021/08/25 12:39:05;;;;;;;6.80;4.03;;;23.70;47.80;;;;;;5052416;28;20446;-44
2021/08/25 12:41:38;;;;;;;5.57;3.17;;;23.70;47.90;;;;;;5059183;28;20447;-44
2021/08/25 12:44:06;;;;;;;5.13;3.27;;;23.90;48.40;;;;;;5069514;28;20468;-44
2021/08/25 12:46:49;;;;;;;5.60;3.63;;;23.90;48.20;;;;;;5065231;28;20499;-44
2021/08/25 12:49:16;;;;;;;4.00;3.10;;;23.90;48.10;;;;;;5051128;28;20972;-44
2021/08/25 12:51:43;;;;;;;4.70;3.80;;;24.00;48.40;;;;;;5061583;28;20461;-44
2021/08/25 12:54:10;;;;;;;9.77;4.20;;;24.00;49.00;;;;;;5069072;28;20795;-44
2021/08/25 12:56:37;;;;;;;5.63;4.23;;;23.90;47.90;;;;;;5065198;28;20458;-44